Latest Weather Observations for Stenhouse Bay

IDS60801

Issued at 7:35 am CDT Thursday 23 October 2014 (issued every 30 minutes, with the page automatically refreshed every 10 minutes)

About weather observations | Map of weather stations | Latest weather observations for SA | Other Formats
Station Details ID: 022049 Name: STENHOUSE BAY Lat: -35.28 Lon: 136.94 Height: 42.0 m
Data from the previous 72 hours. | See also: Recent months at Stenhouse Bay
Date/Time
CDT
Temp
°C
App
Temp
°C
Dew
Point
Rel
Hum
%
Delta-T
°C
Wind Press
QNH
hPa
Press
MSL
hPa
Rain
since 9 am
mm
Dir
 
Spd
km/h
Gust
km/h
Spd
kts
Gust
kts
23/07:30am 14.4 10.8 11.7 84 1.4 SE 22 30 12 16 1019.1 1019.1 0.0
23/07:00am 14.2 10.5 11.4 83 1.5 SE 22 28 12 15 1019.0 1019.0 0.0
23/06:30am 14.3 11.0 11.5 83 1.5 SE 20 26 11 14 1018.9 1018.9 0.0
23/06:00am 14.3 11.0 11.5 83 1.5 SE 20 30 11 16 1018.7 1018.7 0.0
23/05:30am 14.4 10.7 11.6 83 1.5 ESE 22 30 12 16 1018.6 1018.6 0.0
23/05:00am 14.4 11.3 11.6 83 1.5 SE 19 22 10 12 1019.1 1019.1 0.0
23/04:30am 14.3 11.2 11.6 84 1.4 SE 19 28 10 15 1019.3 1019.3 0.0
23/04:00am 14.2 10.9 11.5 84 1.4 SE 20 26 11 14 1018.7 1018.7 0.0
23/03:30am 14.3 10.6 11.6 84 1.4 SE 22 32 12 17 1018.8 1018.8 0.0
23/03:00am 14.2 10.2 11.7 85 1.3 SSE 24 32 13 17 1019.2 1019.2 0.0
23/02:30am 14.2 10.9 11.7 85 1.3 SE 20 30 11 16 1019.6 1019.6 0.0
23/02:00am 14.2 9.4 11.5 84 1.4 SSE 28 33 15 18 1020.0 1020.0 0.0
23/01:30am 14.1 10.0 11.4 84 1.4 SSE 24 32 13 17 1020.6 1020.6 0.0
23/01:00am 14.3 10.7 11.8 85 1.3 SSE 22 28 12 15 1020.8 1020.8 0.0
23/12:30am 14.2 10.6 11.7 85 1.3 SSE 22 32 12 17 1021.1 1021.1 0.0
23/12:00am 14.1 10.0 11.6 85 1.3 SSE 24 32 13 17 1021.2 1021.2 0.0
 
Date/Time
CDT
Temp
°C
App
Temp
°C
Dew
Point
Rel
Hum
%
Delta-T
°C
Wind Press
QNH
hPa
Press
MSL
hPa
Rain
since 9 am
mm
Dir
 
Spd
km/h
Gust
km/h
Spd
kts
Gust
kts
22/11:30pm 14.2 9.8 11.7 85 1.3 SSE 26 32 14 17 1021.2 1021.2 0.0
22/11:00pm 14.4 10.8 11.9 85 1.3 SSE 22 30 12 16 1021.2 1021.2 0.0
22/10:30pm 14.7 10.8 12.2 85 1.4 SSE 24 32 13 17 1021.3 1021.3 0.0
22/10:00pm 14.6 11.3 11.7 83 1.6 SSE 20 28 11 15 1021.4 1021.4 0.0
22/09:30pm 14.6 11.0 11.7 83 1.6 SSE 22 33 12 18 1021.2 1021.2 0.0
22/09:00pm 14.5 10.1 11.7 83 1.5 SSE 26 35 14 19 1021.1 1021.1 0.0
22/08:30pm 14.8 9.7 11.8 82 1.6 SSE 30 35 16 19 1020.8 1020.8 0.0
22/08:00pm 15.2 10.2 12.3 83 1.6 SSE 30 33 16 18 1020.4 1020.4 0.0
22/07:30pm 16.0 11.9 12.7 81 1.8 SSE 26 32 14 17 1020.0 1020.0 0.0
22/07:00pm 16.6 13.6 12.4 76 2.3 S 20 26 11 14 1019.9 1019.9 0.0
22/06:30pm 16.7 12.9 12.5 76 2.3 SSE 24 28 13 15 1019.7 1019.7 0.0
22/06:00pm 17.5 13.9 13.0 75 2.5 SSE 24 28 13 15 1019.4 1019.4 0.0
22/05:30pm 17.8 14.6 13.1 74 2.6 SSE 22 28 12 15 1019.2 1019.2 0.0
22/05:00pm 17.8 14.2 13.1 74 2.6 SSE 24 30 13 16 1019.2 1019.2 0.0
22/04:30pm 19.0 15.8 13.2 69 3.3 S 22 28 12 15 1019.2 1019.2 0.0
22/04:00pm 19.7 18.2 14.3 71 3.1 S 15 19 8 10 1019.3 1019.3 0.0
22/03:30pm 19.9 17.8 13.6 67 3.6 S 17 22 9 12 1019.3 1019.3 0.0
22/03:00pm 20.2 19.6 14.6 70 3.3 SSW 11 15 6 8 1019.3 1019.3 0.0
22/02:30pm 19.7 18.6 14.3 71 3.1 S 13 15 7 8 1019.4 1019.4 0.0
22/02:00pm 19.6 18.4 14.0 70 3.2 SSW 13 17 7 9 1019.4 1019.4 0.0
22/01:30pm 19.3 18.2 14.3 73 2.9 SSW 13 17 7 9 1019.6 1019.6 0.0
22/01:00pm 19.2 18.0 14.0 72 3.0 SSW 13 17 7 9 1019.7 1019.7 0.0
22/12:30pm 19.4 17.1 14.6 74 2.8 SSW 20 28 11 15 1019.8 1019.8 0.0
22/12:00pm 19.4 16.9 14.2 72 3.0 SW 20 30 11 16 1019.5 1019.5 0.0
22/11:30am 18.5 16.0 14.2 76 2.5 SW 20 28 11 15 1019.5 1019.5 0.0
22/11:00am 17.8 13.8 14.1 79 2.1 SW 28 39 15 21 1019.3 1019.3 0.0
22/10:30am 17.8 14.5 13.9 78 2.2 SW 24 32 13 17 1019.0 1019.0 0.0
22/10:00am 18.4 15.8 13.9 75 2.6 SW 20 26 11 14 1018.8 1018.8 0.0
22/09:30am 18.1 15.4 13.6 75 2.6 SSW 20 28 11 15 1018.5 1018.5 0.0
22/09:00am 17.3 14.8 13.4 78 2.2 SW 19 30 10 16 1018.2 1018.2 0.0
22/08:30am 16.8 14.4 13.9 83 1.6 SW 19 28 10 15 1018.1 1018.1 0.0
22/08:00am 16.4 12.3 13.7 84 1.5 SW 28 35 15 19 1018.1 1018.1 0.0
22/07:30am 16.8 14.2 13.3 80 2.0 SSW 19 26 10 14 1017.7 1017.7 0.0
22/07:00am 16.4 14.7 13.7 84 1.5 SSW 15 20 8 11 1017.7 1017.7 0.0
22/06:30am 16.5 14.4 13.6 83 1.6 SSW 17 24 9 13 1017.4 1017.4 0.0
22/06:00am 16.6 15.2 13.3 81 1.8 SW 13 20 7 11 1016.9 1016.8 0.0
22/05:30am 17.2 14.9 13.1 77 2.3 S 17 20 9 11 1016.7 1016.6 0.0
22/05:00am 17.1 16.4 13.2 78 2.2 SSW 9 15 5 8 1016.8 1016.7 0.0
22/04:30am 17.4 15.4 12.7 74 2.6 SSW 15 20 8 11 1016.1 1016.0 0.0
22/04:00am 17.5 15.2 13.0 75 2.5 SSW 17 26 9 14 1015.8 1015.7 0.0
22/03:30am 17.4 15.1 13.1 76 2.4 SSW 17 22 9 12 1015.6 1015.5 0.0
22/03:00am 17.9 15.0 13.0 73 2.8 SSW 20 28 11 15 1015.4 1015.3 0.0
22/02:30am 18.5 15.1 12.5 68 3.3 SW 22 33 12 18 1015.7 1015.6 0.0
22/02:00am 18.3 13.5 13.0 71 3.0 WSW 30 41 16 22 1015.7 1015.6 0.0
22/01:30am 19.9 15.7 11.1 57 4.8 WSW 24 33 13 18 1016.0 1015.9 0.0
22/01:00am 21.5 17.7 9.1 45 6.6 WSW 19 24 10 13 1016.3 1016.2 0.0
22/12:30am 21.9 18.7 10.1 47 6.4 SE 17 20 9 11 1015.3 1015.2 0.0
22/12:00am 23.2 19.8 7.7 37 8.1 S 15 22 8 12 1016.2 1016.1 0.0
 
Date/Time
CDT
Temp
°C
App
Temp
°C
Dew
Point
Rel
Hum
%
Delta-T
°C
Wind Press
QNH
hPa
Press
MSL
hPa
Rain
since 9 am
mm
Dir
 
Spd
km/h
Gust
km/h
Spd
kts
Gust
kts
21/11:30pm 22.9 18.4 8.6 40 7.6 SSE 22 33 12 18 1016.3 1016.2 0.0
21/11:00pm 23.1 18.9 7.6 37 8.1 S 19 39 10 21 1016.7 1016.6 0.0
21/10:30pm 20.6 15.5 11.8 57 4.9 S 30 41 16 22 1017.3 1017.3 0.0
21/10:10pm 20.6 14.1 11.8 57 4.9 S 37 50 20 27 1016.7 1016.6 0.0
21/10:00pm 19.7 13.9 12.7 64 3.9 WSW 35 46 19 25 1018.0 1018.0 0.0
21/09:47pm 23.5 15.9 10.6 44 7.1 WSW 41 48 22 26 1017.3 1017.3 0.0
21/09:30pm 25.0 22.5 6.7 31 9.5 ENE 9 15 5 8 1015.9 1015.8 0.0
21/09:00pm 25.7 22.5 5.3 27 10.4 E 11 17 6 9 1015.5 1015.4 0.0
21/08:30pm 25.3 22.6 7.4 32 9.5 ENE 11 17 6 9 1015.7 1015.6 0.0
21/08:00pm 24.8 22.2 7.9 34 9.0 NE 11 24 6 13 1015.5 1015.4 0.0
21/07:30pm 25.2 22.8 6.9 31 9.6 E 9 13 5 7 1015.4 1015.3 0.0
21/07:00pm 23.8 22.1 9.8 41 7.7 ENE 9 13 5 7 1015.5 1015.4 0.0
21/06:30pm 23.9 23.3 12.2 48 6.7 E 7 11 4 6 1015.6 1015.5 0.0
21/06:00pm 25.0 24.2 11.2 42 7.8 ENE 6 7 3 4 1016.0 1015.9 0.0
21/05:30pm 24.4 23.3 10.7 42 7.6 ENE 7 11 4 6 1015.9 1015.8 0.0
21/05:00pm 22.1 21.2 13.7 59 4.9 ENE 11 15 6 8 1015.8 1015.7 0.0
21/04:30pm 22.3 21.5 13.9 59 4.9 E 11 15 6 8 1015.9 1015.8 0.0
21/04:00pm 22.0 21.2 13.9 60 4.7 E 11 19 6 10 1016.0 1015.9 0.0
21/03:30pm 25.9 24.9 10.9 39 8.4 SSE 7 9 4 5 1016.2 1016.1 0.0
21/03:00pm 26.2 24.2 10.0 36 9.0 S 11 15 6 8 1016.6 1016.5 0.0
21/02:30pm 24.5 23.5 13.4 50 6.5 S 11 19 6 10 1017.0 1016.9 0.0
21/02:06pm 22.6 21.7 13.7 57 5.2 SSW 11 20 6 11 1017.2 1017.2 0.0
21/02:00pm 28.0 27.8 13.1 39 8.8 S 6 13 3 7 1017.2 1017.2 0.0
21/01:30pm 24.5 24.2 13.4 50 6.5 S 7 13 4 7 1017.5 1017.5 0.0
21/01:00pm 27.1 25.3 10.8 36 9.2 SSE 11 17 6 9 1017.7 1017.7 0.0
21/12:30pm 34.9 29.1 2.4 13 16.7 N 22 33 12 18 1017.9 1017.9 0.0
21/12:26pm 33.8 28.8 4.5 16 15.5 NNE 20 30 11 16 1018.0 1018.0 0.0
21/12:00pm 27.9 26.5 11.0 35 9.6 E 9 15 5 8 1018.2 1018.2 0.0
21/11:30am 27.8 25.8 10.1 33 9.9 E 11 19 6 10 1018.4 1018.4 0.0
21/11:00am 24.3 22.6 11.3 44 7.3 ENE 11 15 6 8 1018.6 1018.6 0.0
21/10:30am 22.3 20.6 12.3 53 5.7 ENE 13 17 7 9 1018.7 1018.7 0.0
21/10:00am 22.8 20.3 10.9 47 6.6 NE 15 22 8 12 1018.6 1018.6 0.0
21/09:30am 21.3 19.1 10.8 51 5.8 NE 13 17 7 9 1018.6 1018.6 0.0
21/09:00am 22.1 19.8 10.6 48 6.3 NE 13 19 7 10 1018.6 1018.6 0.0
21/08:30am 20.9 19.5 11.0 53 5.4 NE 9 13 5 7 1018.6 1018.6 0.0
21/08:00am 18.4 16.7 11.2 63 3.9 NE 11 13 6 7 1018.4 1018.4 0.0
21/07:30am 18.1 16.7 12.3 69 3.2 ENE 11 13 6 7 1018.3 1018.3 0.0
21/07:00am 17.7 16.2 13.2 75 2.5 ENE 13 15 7 8 1017.7 1017.7 0.0
21/06:30am 17.6 15.7 13.1 75 2.5 ENE 15 17 8 9 1017.4 1017.4 0.0
21/06:00am 16.7 16.1 13.6 82 1.7 ENE 9 13 5 7 1017.3 1017.3 0.0
21/05:30am 16.9 16.0 13.8 82 1.8 ENE 11 17 6 9 1017.2 1017.2 0.0
21/05:00am 17.1 15.3 13.4 79 2.1 E 15 20 8 11 1017.1 1017.0 0.0
21/04:30am 16.9 15.3 14.0 83 1.6 E 15 20 8 11 1017.2 1017.2 0.0
21/04:00am 17.1 15.5 13.8 81 1.9 E 15 20 8 11 1017.4 1017.4 0.0
21/03:30am 17.1 15.1 13.8 81 1.9 ENE 17 24 9 13 1017.4 1017.4 0.0
21/03:00am 17.0 14.6 13.9 82 1.8 ENE 19 26 10 14 1017.6 1017.6 0.0
21/02:30am 16.8 13.9 14.1 84 1.5 E 22 28 12 15 1017.9 1017.9 0.0
21/02:00am 16.6 14.3 14.2 86 1.4 ENE 19 24 10 13 1018.5 1018.5 0.0
21/01:30am 16.7 14.4 14.2 85 1.4 ENE 19 26 10 14 1018.9 1018.9 0.0
21/01:00am 16.7 14.4 14.0 84 1.5 E 19 24 10 13 1019.3 1019.3 0.0
21/12:30am 16.8 14.8 13.9 83 1.6 E 17 26 9 14 1019.7 1019.7 0.0
21/12:00am 16.8 14.4 13.7 82 1.7 E 19 24 10 13 1019.8 1019.8 0.0
 
Date/Time
CDT
Temp
°C
App
Temp
°C
Dew
Point
Rel
Hum
%
Delta-T
°C
Wind Press
QNH
hPa
Press
MSL
hPa
Rain
since 9 am
mm
Dir
 
Spd
km/h
Gust
km/h
Spd
kts
Gust
kts
20/11:30pm 16.8 14.2 13.7 82 1.7 E 20 28 11 15 1020.1 1020.1 0.0
20/11:00pm 16.9 14.2 13.6 81 1.9 ENE 20 30 11 16 1020.2 1020.2 0.0
20/10:30pm 16.9 14.2 13.4 80 2.0 E 20 28 11 15 1020.5 1020.5 0.0
20/10:00pm 17.1 14.5 13.2 78 2.2 E 19 26 10 14 1020.8 1020.8 0.0
20/09:30pm 17.1 13.4 12.8 76 2.4 E 24 33 13 18 1020.8 1020.8 0.0
20/09:00pm 17.1 13.0 12.8 76 2.4 E 26 33 14 18 1020.5 1020.5 0.0
20/08:30pm 17.1 13.0 12.6 75 2.5 E 26 33 14 18 1020.4 1020.4 0.0
20/08:00pm 17.1 14.1 12.6 75 2.5 E 20 28 11 15 1020.5 1020.5 0.0
20/07:30pm 17.2 13.9 12.7 75 2.5 E 22 30 12 16 1020.4 1020.4 0.0
20/07:00pm 17.2 14.4 13.1 77 2.3 E 20 28 11 15 1020.3 1020.3 0.0
20/06:30pm 17.7 14.6 13.4 76 2.4 E 22 32 12 17 1020.1 1020.1 0.0
20/06:00pm 18.1 15.6 13.4 74 2.7 E 19 26 10 14 1020.1 1020.1 0.0
20/05:30pm 18.6 15.6 13.7 73 2.8 E 22 32 12 17 1020.2 1020.2 0.0
20/05:00pm 19.1 16.0 13.5 70 3.2 E 22 32 12 17 1020.2 1020.2 0.0
20/04:30pm 19.0 15.5 13.4 70 3.2 E 24 32 13 17 1020.6 1020.6 0.0
20/04:00pm 19.3 15.4 13.3 68 3.4 E 26 33 14 18 1020.9 1020.9 0.0
20/03:30pm 19.2 14.9 13.2 68 3.4 E 28 33 15 18 1021.2 1021.2 0.0
20/03:00pm 19.4 15.1 13.1 67 3.6 E 28 41 15 22 1021.5 1021.5 0.0
20/02:30pm 19.2 14.4 12.9 67 3.5 E 30 39 16 21 1022.0 1022.0 0.0
20/02:00pm 19.1 14.0 13.1 68 3.4 E 32 41 17 22 1022.4 1022.4 0.0
20/01:30pm 18.7 13.6 13.1 70 3.2 E 32 39 17 21 1022.8 1022.8 0.0
20/01:00pm 18.7 13.5 12.7 68 3.4 E 32 41 17 22 1023.1 1023.1 0.0
20/12:30pm 18.1 13.3 12.8 71 3.0 E 30 39 16 21 1023.4 1023.4 0.0
20/12:00pm 18.1 12.6 12.3 69 3.2 E 33 43 18 23 1023.7 1023.7 0.0
20/11:30am 17.8 12.2 12.0 69 3.2 E 33 43 18 23 1024.0 1024.0 0.0
20/11:00am 17.8 11.9 12.5 71 2.9 E 35 44 19 24 1024.2 1024.2 0.0
20/10:30am 17.1 10.8 12.2 73 2.7 E 37 46 20 25 1024.3 1024.3 0.0
20/10:00am 15.9 10.3 12.1 78 2.1 E 33 46 18 25 1024.4 1024.4 0.0
20/09:30am 15.9 9.1 12.1 78 2.1 E 39 50 21 27 1024.3 1024.3 0.0
20/09:00am 15.4 7.8 11.8 79 1.9 E 43 52 23 28 1024.2 1024.2 0.0
20/08:30am 15.4 8.3 12.2 81 1.7 ESE 41 50 22 27 1024.4 1024.4 0.0
20/08:00am 15.3 8.6 12.2 82 1.7 ESE 39 48 21 26 1024.1 1024.1 0.0

Other Formats:

Comma delimited format used in spreadsheet applications
http://www.bom.gov.au/fwo/IDS60801/IDS60801.95806.axf

JavaScript Object Notation format (JSON) in row-major order
http://www.bom.gov.au/fwo/IDS60801/IDS60801.95806.json